Time;durP1;ratioP1;P1;durP2;ratioP2;P2;SDS_P1;SDS_P2;PMS_P1;PMS_P2;Temp;Humidity;BMP_temperature;BMP_pressure;BME280_temperature;BME280_humidity;BME280_pressure;Samples;Min_cycle;Max_cycle;Signal;HPM_P1;HPM_P2
2022/08/12 00:44:54;;;;;;;0.32;0.22;;;15.10;99.90;;;;;;4929198;29;20507;-74
2022/08/12 00:47:21;;;;;;;0.10;0.10;;;15.10;99.90;;;;;;4944886;29;20410;-75
2022/08/12 00:49:50;;;;;;;0.40;0.40;;;15.20;99.90;;;;;;4948645;29;20130;-75
2022/08/12 00:52:17;;;;;;;0.25;0.25;;;15.30;99.90;;;;;;4945975;29;20047;-75
2022/08/12 00:54:51;;;;;;;0.85;0.73;;;15.20;99.90;;;;;;4944941;29;20403;-74
2022/08/12 00:57:23;;;;;;;0.85;0.73;;;15.20;99.90;;;;;;4944986;29;20099;-75
2022/08/12 00:59:54;;;;;;;2.67;0.95;;;15.20;99.90;;;;;;4948784;29;20059;-74
2022/08/12 01:02:32;;;;;;;1.95;1.10;;;15.20;99.90;;;;;;4953549;29;20052;-75
2022/08/12 01:13:17;;;;;;;1.20;0.50;;;15.10;99.90;;;;;;4947902;29;20066;-74
2022/08/12 01:15:45;;;;;;;0.40;0.40;;;15.10;99.90;;;;;;4950137;29;20044;-75
2022/08/12 01:18:13;;;;;;;0.57;0.45;;;15.00;99.90;;;;;;4949821;29;20052;-74
2022/08/12 01:20:55;;;;;;;0.17;0.10;;;15.10;99.90;;;;;;4948032;29;20047;-75
2022/08/12 01:23:44;;;;;;;0.98;0.77;;;15.10;99.90;;;;;;4950221;29;20052;-75
2022/08/12 01:26:16;;;;;;;1.27;1.10;;;15.10;99.90;;;;;;4950641;29;20051;-75
2022/08/12 01:28:43;;;;;;;1.02;0.22;;;15.00;99.90;;;;;;4951460;29;20058;-74
2022/08/12 01:31:10;;;;;;;0.30;0.20;;;14.90;99.90;;;;;;4953361;29;20092;-75
2022/08/12 01:33:45;;;;;;;0.55;0.55;;;16.00;99.90;;;;;;4953291;29;20043;-75
2022/08/12 01:36:13;;;;;;;0.82;0.50;;;14.90;99.90;;;;;;4951188;29;20056;-75
2022/08/12 01:38:42;;;;;;;1.30;0.82;;;14.90;99.90;;;;;;4950056;29;20044;-75
2022/08/12 01:41:10;;;;;;;0.20;0.20;;;14.90;99.90;;;;;;4951664;29;20119;-75
2022/08/12 01:43:37;;;;;;;0.20;0.20;;;14.90;99.90;;;;;;4950891;29;20487;-75
2022/08/12 01:46:28;;;;;;;1.65;0.30;;;14.90;99.90;;;;;;4949512;29;20192;-75
2022/08/12 01:49:00;;;;;;;0.13;0.10;;;14.80;99.90;;;;;;4940239;29;20555;-75
2022/08/12 01:51:41;;;;;;;0.82;0.47;;;14.80;99.90;;;;;;4950437;29;20055;-75
2022/08/12 01:54:14;;;;;;;0.30;0.30;;;14.70;99.90;;;;;;4948241;29;20059;-75
2022/08/12 01:56:50;;;;;;;0.68;0.43;;;14.70;99.90;;;;;;4947695;29;20069;-75
2022/08/12 01:59:46;;;;;;;0.20;0.20;;;14.60;99.90;;;;;;4948933;29;20043;-75
2022/08/12 02:02:35;;;;;;;0.25;0.10;;;14.60;99.90;;;;;;4951664;29;20092;-75
2022/08/12 02:11:31;;;;;;;0.70;0.43;;;14.60;99.90;;;;;;4945565;29;20048;-75
2022/08/12 02:14:27;;;;;;;0.00;0.00;;;14.70;99.90;;;;;;4944658;29;20040;-75
2022/08/12 02:17:22;;;;;;;0.15;0.15;;;14.60;99.90;;;;;;4932274;29;20040;-75
2022/08/12 02:20:06;;;;;;;1.23;0.70;;;14.60;99.90;;;;;;4934567;29;20052;-75
2022/08/12 02:22:43;;;;;;;0.55;0.40;;;14.60;99.90;;;;;;4945749;29;20059;-74
2022/08/12 02:25:11;;;;;;;;;;;14.50;99.90;;;;;;4950589;29;20048;-75
2022/08/12 02:27:44;;;;;;;0.40;0.40;;;14.50;99.90;;;;;;4949979;29;20009;-75
2022/08/12 02:30:13;;;;;;;0.28;0.20;;;14.50;99.90;;;;;;4948796;29;20059;-75
2022/08/12 02:32:42;;;;;;;2.20;1.20;;;14.50;99.90;;;;;;4949704;29;20044;-75
2022/08/12 02:35:29;;;;;;;0.88;0.43;;;14.50;99.90;;;;;;4947991;29;20071;-75
2022/08/12 02:37:58;;;;;;;12.07;1.42;;;14.50;99.90;;;;;;4949760;29;20056;-75
2022/08/12 02:40:25;;;;;;;3.70;1.38;;;14.60;99.90;;;;;;4948052;29;20055;-75
2022/08/12 02:42:59;;;;;;;0.50;0.47;;;14.50;99.90;;;;;;4947655;29;20051;-75
2022/08/12 02:45:50;;;;;;;1.08;0.80;;;14.50;99.90;;;;;;4946386;29;20050;-74
2022/08/12 02:48:23;;;;;;;1.17;0.75;;;14.50;99.90;;;;;;4948404;29;20514;-75
2022/08/12 02:50:51;;;;;;;0.03;0.03;;;14.40;99.90;;;;;;4949284;29;20071;-75
2022/08/12 02:53:18;;;;;;;2.05;0.50;;;14.50;99.90;;;;;;4948509;29;20050;-75
2022/08/12 02:55:44;;;;;;;0.43;0.25;;;14.50;99.90;;;;;;4948348;29;20518;-75
2022/08/12 02:58:11;;;;;;;0.25;0.25;;;14.70;99.90;;;;;;4946144;29;20048;-75
2022/08/12 03:00:38;;;;;;;1.10;0.90;;;14.40;99.90;;;;;;4944467;29;20064;-75
2022/08/12 03:03:07;;;;;;;3.28;0.60;;;14.40;99.90;;;;;;4946722;29;20063;-74
2022/08/12 03:05:36;;;;;;;0.63;0.52;;;14.40;99.90;;;;;;4946703;29;20087;-75
2022/08/12 03:08:03;;;;;;;0.20;0.20;;;14.30;99.90;;;;;;4948483;29;20436;-75
2022/08/12 03:10:34;;;;;;;0.85;0.77;;;14.30;99.90;;;;;;4947566;29;20620;-75
2022/08/12 03:13:02;;;;;;;0.80;0.30;;;14.30;99.90;;;;;;4944893;29;20099;-75
2022/08/12 03:15:30;;;;;;;0.20;0.20;;;14.20;99.90;;;;;;4948551;29;20083;-75
2022/08/12 03:18:14;;;;;;;0.45;0.22;;;14.20;99.90;;;;;;4947202;29;20107;-76
2022/08/12 03:20:40;;;;;;;1.20;0.85;;;14.10;99.90;;;;;;4945677;29;20051;-75
2022/08/12 03:23:10;;;;;;;0.77;0.57;;;14.10;99.90;;;;;;4945220;29;20056;-75
2022/08/12 03:25:39;;;;;;;0.70;0.57;;;14.00;99.90;;;;;;4946934;29;20082;-75
2022/08/12 03:28:08;;;;;;;0.10;0.10;;;14.00;99.90;;;;;;4949475;29;20044;-74
2022/08/12 03:30:36;;;;;;;0.52;0.52;;;14.00;99.90;;;;;;4946140;29;20051;-75
2022/08/12 03:33:03;;;;;;;0.50;0.15;;;14.10;99.90;;;;;;4947959;29;20044;-75
2022/08/12 03:35:32;;;;;;;0.98;0.47;;;14.00;99.90;;;;;;4948787;29;20491;-75
2022/08/12 03:38:14;;;;;;;3.53;0.82;;;14.00;99.90;;;;;;4948687;29;20055;-74
2022/08/12 04:00:35;;;;;;;0.47;0.45;;;14.20;99.90;;;;;;4944546;29;20047;-75
2022/08/12 04:03:01;;;;;;;0.65;0.60;;;14.60;99.90;;;;;;4944945;29;20399;-75
2022/08/12 04:05:29;;;;;;;0.08;0.08;;;14.20;99.90;;;;;;4944673;29;20050;-75
2022/08/12 04:07:55;;;;;;;0.65;0.43;;;14.10;99.90;;;;;;4924379;29;20048;-75
2022/08/12 04:10:21;;;;;;;1.33;0.47;;;14.10;99.90;;;;;;4924023;29;20047;-75
2022/08/12 04:13:18;;;;;;;0.10;0.10;;;14.10;99.90;;;;;;4939657;29;20569;-75
2022/08/12 04:15:44;;;;;;;;;;;14.10;99.90;;;;;;4943621;29;20060;-74
2022/08/12 04:18:17;;;;;;;0.32;0.32;;;14.00;99.90;;;;;;4942017;29;19922;-75
2022/08/12 04:20:44;;;;;;;0.50;0.45;;;14.00;99.90;;;;;;4944246;29;20091;-75
2022/08/12 04:23:13;;;;;;;0.77;0.30;;;14.10;99.90;;;;;;4943945;29;20062;-75
2022/08/12 04:25:40;;;;;;;0.25;0.25;;;14.00;99.90;;;;;;4943297;29;20055;-75
2022/08/12 04:28:07;;;;;;;1.25;0.65;;;14.00;99.90;;;;;;4942036;29;20394;-75
2022/08/12 04:30:34;;;;;;;0.40;0.28;;;14.00;99.90;;;;;;4941570;29;20143;-75
2022/08/12 04:33:00;;;;;;;0.63;0.45;;;14.00;99.90;;;;;;4941294;29;20084;-75
2022/08/12 04:35:26;;;;;;;0.47;0.47;;;14.10;99.90;;;;;;4942038;29;20479;-75
2022/08/12 04:37:56;;;;;;;0.52;0.52;;;14.10;99.90;;;;;;4943846;29;20099;-74
2022/08/12 04:40:23;;;;;;;0.15;0.15;;;14.10;99.90;;;;;;4946652;29;20040;-75
2022/08/12 04:42:50;;;;;;;1.08;0.68;;;14.10;99.90;;;;;;4945895;29;20533;-75
2022/08/12 04:45:19;;;;;;;0.40;0.30;;;14.10;99.90;;;;;;4942663;29;20044;-75
2022/08/12 04:47:45;;;;;;;0.40;0.38;;;14.10;99.90;;;;;;4941707;29;20451;-75
2022/08/12 04:50:16;;;;;;;0.25;0.20;;;14.20;99.90;;;;;;4943504;29;20040;-75
2022/08/12 04:52:42;;;;;;;0.10;0.10;;;14.10;99.90;;;;;;4944801;29;20095;-75
2022/08/12 04:55:09;;;;;;;0.77;0.50;;;14.10;99.90;;;;;;4945351;29;20047;-75
2022/08/12 04:57:35;;;;;;;0.63;0.57;;;14.10;99.90;;;;;;4944177;29;20506;-75
2022/08/12 05:00:06;;;;;;;0.75;0.40;;;14.20;99.90;;;;;;4944048;29;20047;-75
2022/08/12 05:02:31;;;;;;;0.47;0.30;;;14.30;99.90;;;;;;4944037;29;20044;-75
2022/08/12 05:04:58;;;;;;;2.25;1.20;;;14.30;99.90;;;;;;4942385;29;20115;-75
2022/08/12 05:07:25;;;;;;;0.05;0.05;;;14.40;99.90;;;;;;4939825;29;20047;-75
2022/08/12 05:09:50;;;;;;;0.47;0.25;;;14.40;99.90;;;;;;4940907;29;20047;-76
2022/08/12 05:12:18;;;;;;;0.45;0.45;;;14.40;99.90;;;;;;4940447;29;20058;-75
2022/08/12 05:14:44;;;;;;;0.13;0.13;;;14.50;99.90;;;;;;4940524;29;20054;-76
2022/08/12 05:17:10;;;;;;;0.45;0.45;;;14.70;99.90;;;;;;4935963;29;20035;-75
2022/08/12 05:19:35;;;;;;;0.30;0.30;;;14.70;99.90;;;;;;4935914;29;20178;-75
2022/08/12 05:22:01;;;;;;;1.10;0.80;;;14.80;99.90;;;;;;4936077;29;20083;-75
2022/08/12 05:24:27;;;;;;;1.30;0.88;;;14.90;99.90;;;;;;4936579;29;20044;-75
2022/08/12 05:26:53;;;;;;;1.23;0.55;;;15.10;99.90;;;;;;4940741;29;20043;-74
2022/08/12 05:29:19;;;;;;;1.10;1.00;;;15.00;99.90;;;;;;4946781;29;20046;-75
2022/08/12 05:31:44;;;;;;;1.20;0.73;;;15.10;99.90;;;;;;4947800;29;20063;-75
2022/08/12 05:34:13;;;;;;;1.23;0.95;;;15.30;99.90;;;;;;4949983;29;20055;-75
2022/08/12 05:36:40;;;;;;;0.80;0.77;;;15.30;99.90;;;;;;4949666;29;20059;-75
2022/08/12 05:39:05;;;;;;;1.08;0.98;;;15.50;99.90;;;;;;4950254;29;20032;-75
2022/08/12 05:41:34;;;;;;;0.60;0.40;;;15.60;99.90;;;;;;4949669;29;20067;-75
2022/08/12 05:44:15;;;;;;;0.93;0.65;;;15.70;99.90;;;;;;4951294;29;20115;-75
2022/08/12 05:46:40;;;;;;;1.45;0.93;;;15.80;99.90;;;;;;4946516;29;20058;-75
2022/08/12 05:49:06;;;;;;;0.35;0.25;;;15.90;99.90;;;;;;4945263;29;20067;-75
2022/08/12 05:51:36;;;;;;;0.28;0.20;;;16.40;99.90;;;;;;4945416;29;20040;-75
2022/08/12 05:54:02;;;;;;;0.10;0.10;;;16.00;99.90;;;;;;4948118;29;20044;-76
2022/08/12 05:56:30;;;;;;;0.70;0.60;;;16.10;99.90;;;;;;4945175;29;20071;-75
2022/08/12 05:58:57;;;;;;;0.82;0.73;;;16.20;99.90;;;;;;4946110;29;20055;-75
2022/08/12 06:01:24;;;;;;;1.80;1.63;;;16.30;99.90;;;;;;4945440;29;20044;-74
2022/08/12 06:03:51;;;;;;;7.03;1.67;;;16.90;99.90;;;;;;4945461;29;20043;-75
2022/08/12 06:06:17;;;;;;;1.08;0.63;;;16.60;99.90;;;;;;4945901;29;20044;-75
2022/08/12 06:08:47;;;;;;;0.70;0.22;;;16.70;99.90;;;;;;4944892;29;20074;-74
2022/08/12 06:11:17;;;;;;;1.10;0.50;;;16.90;99.90;;;;;;4945086;29;20497;-74
2022/08/12 06:13:44;;;;;;;1.27;0.68;;;17.10;99.90;;;;;;4944981;29;20053;-75
2022/08/12 06:16:11;;;;;;;0.47;0.30;;;17.20;99.90;;;;;;4943530;29;20063;-74
2022/08/12 06:18:38;;;;;;;0.47;0.47;;;17.70;99.90;;;;;;4941011;29;20078;-75
2022/08/12 06:21:09;;;;;;;0.13;0.13;;;18.70;99.90;;;;;;4941386;29;20056;-76
2022/08/12 06:23:35;;;;;;;0.10;0.10;;;19.60;99.90;;;;;;4942774;29;20146;-75
2022/08/12 06:26:01;;;;;;;1.45;0.55;;;20.60;99.90;;;;;;4949949;28;20043;-75
2022/08/12 06:28:29;;;;;;;1.20;0.40;;;21.40;99.90;;;;;;4956970;28;20116;-75
2022/08/12 06:30:56;;;;;;;1.38;0.80;;;22.20;99.90;;;;;;4945240;28;20102;-75
2022/08/12 06:33:21;;;;;;;0.80;0.52;;;22.90;99.90;;;;;;4940104;29;20043;-75
2022/08/12 06:35:48;;;;;;;0.17;0.17;;;23.30;99.90;;;;;;4939782;29;20441;-75
2022/08/12 06:38:15;;;;;;;1.55;0.52;;;23.50;99.90;;;;;;4921645;29;20059;-76
2022/08/12 06:43:26;;;;;;;6.97;0.82;;;23.90;99.90;;;;;;4946938;29;20432;-76
2022/08/12 06:45:53;;;;;;;0.15;0.15;;;24.30;99.90;;;;;;4950164;28;20107;-75
2022/08/12 06:48:19;;;;;;;0.38;0.38;;;24.30;99.90;;;;;;4952903;28;20055;-76
2022/08/12 06:50:45;;;;;;;0.35;0.35;;;24.70;99.90;;;;;;4939345;29;20059;-76
2022/08/12 06:53:11;;;;;;;0.22;0.13;;;25.30;99.10;;;;;;4937368;29;20040;-77
2022/08/12 06:55:38;;;;;;;0.20;0.20;;;25.40;98.40;;;;;;4937753;29;20076;-76
2022/08/12 06:58:04;;;;;;;0.25;0.20;;;25.60;95.80;;;;;;4937833;29;20091;-76
2022/08/12 07:00:34;;;;;;;0.00;0.00;;;25.70;89.60;;;;;;4952208;28;20044;-75
2022/08/12 07:03:03;;;;;;;0.13;0.13;;;26.10;87.90;;;;;;4956622;28;20043;-76
2022/08/12 07:05:29;;;;;;;5.53;0.77;;;26.30;78.90;;;;;;4945060;28;20058;-76
2022/08/12 07:07:58;;;;;;;0.13;0.10;;;26.80;73.90;;;;;;4940192;28;20426;-75
2022/08/12 07:10:25;;;;;;;0.20;0.20;;;26.50;67.30;;;;;;4935697;29;20110;-76
2022/08/12 07:12:53;;;;;;;0.68;0.47;;;26.60;59.40;;;;;;4937747;29;20055;-76
2022/08/12 07:15:24;;;;;;;1.65;0.43;;;26.80;62.10;;;;;;4940007;29;20048;-76
2022/08/12 07:17:58;;;;;;;0.30;0.20;;;27.20;54.30;;;;;;4936171;29;20134;-76
2022/08/12 07:20:28;;;;;;;0.77;0.47;;;27.40;47.80;;;;;;4939643;29;20055;-76
2022/08/12 07:22:54;;;;;;;0.10;0.10;;;27.80;38.90;;;;;;4936151;29;20410;-76
2022/08/12 07:25:41;;;;;;;0.10;0.10;;;28.40;39.00;;;;;;4937421;29;20059;-76
2022/08/12 07:28:13;;;;;;;0.00;0.00;;;28.80;32.20;;;;;;4936073;29;20059;-76
2022/08/12 07:30:41;;;;;;;0.00;0.00;;;29.30;18.60;;;;;;4967924;28;20073;-76
2022/08/12 07:33:09;;;;;;;0.20;0.20;;;29.10;18.70;;;;;;4936906;29;20047;-76
2022/08/12 07:35:47;;;;;;;0.60;0.60;;;29.30;18.90;;;;;;4937982;29;20474;-75
2022/08/12 07:38:32;;;;;;;1.25;0.38;;;28.90;14.70;;;;;;4937893;29;20054;-76
2022/08/12 07:41:02;;;;;;;0.45;0.30;;;28.90;16.00;;;;;;4937700;29;20345;-76
2022/08/12 07:43:29;;;;;;;0.00;0.00;;;28.90;16.00;;;;;;4938335;29;20119;-76
2022/08/12 07:45:55;;;;;;;1.23;0.68;;;29.10;13.60;;;;;;4937365;29;20043;-76
2022/08/12 07:48:23;;;;;;;0.25;0.25;;;29.30;12.40;;;;;;4937460;29;20062;-76
2022/08/12 07:50:49;;;;;;;0.35;0.10;;;29.80;14.70;;;;;;4937660;29;20096;-76
2022/08/12 07:53:14;;;;;;;1.20;0.43;;;30.30;8.20;;;;;;4936563;29;20486;-76
2022/08/12 07:55:40;;;;;;;0.45;0.28;;;29.40;2.50;;;;;;4938615;29;20051;-76
2022/08/12 07:58:06;;;;;;;1.02;0.77;;;30.10;6.40;;;;;;4936724;29;20514;-75
2022/08/12 08:00:34;;;;;;;0.00;0.00;;;30.00;1.00;;;;;;4936463;29;20050;-75
2022/08/12 08:03:00;;;;;;;0.85;0.43;;;29.50;1.00;;;;;;4936856;29;20036;-75
2022/08/12 08:08:26;;;;;;;0.35;0.32;;;29.80;4.90;;;;;;4928429;29;20052;-75
2022/08/12 08:12:52;;;;;;;0.10;0.10;;;30.30;5.00;;;;;;4937024;29;20044;-75
2022/08/12 08:13:44;;;;;;;0.28;0.13;;;30.80;1.20;;;;;;4937491;29;20503;-76
2022/08/12 08:16:11;;;;;;;0.13;0.10;;;30.10;1.00;;;;;;4936637;29;20079;-75
2022/08/12 08:18:37;;;;;;;0.17;0.15;;;30.00;1.00;;;;;;4936646;29;20099;-76
2022/08/12 08:21:04;;;;;;;0.22;0.22;;;30.20;1.00;;;;;;4937353;29;20450;-75
2022/08/12 08:26:15;;;;;;;0.43;0.27;;;30.80;1.00;;;;;;4938429;29;20475;-75
2022/08/12 08:28:42;;;;;;;0.32;0.32;;;31.80;1.00;;;;;;4938797;29;20040;-76
2022/08/12 08:31:07;;;;;;;0.50;0.30;;;31.60;1.00;;;;;;4937939;29;20078;-76
2022/08/12 08:33:33;;;;;;;0.03;0.03;;;31.40;1.00;;;;;;4939107;29;20044;-76
2022/08/12 08:35:59;;;;;;;0.10;0.08;;;31.00;1.00;;;;;;4936946;29;20551;-76
2022/08/12 08:38:25;;;;;;;0.10;0.10;;;31.00;1.00;;;;;;4936793;29;20040;-76
2022/08/12 08:43:35;;;;;;;1.67;0.95;;;31.40;1.00;;;;;;4937974;29;20098;-75
2022/08/12 08:46:04;;;;;;;0.32;0.10;;;31.10;1.00;;;;;;4941069;29;20043;-75
2022/08/12 08:48:33;;;;;;;0.08;0.08;;;31.50;1.00;;;;;;4939923;29;20160;-75
2022/08/12 08:50:59;;;;;;;0.15;0.10;;;32.00;1.00;;;;;;4941036;29;20084;-75
2022/08/12 08:53:25;;;;;;;0.80;0.55;;;32.60;1.00;;;;;;4940579;29;20564;-76
2022/08/12 08:55:52;;;;;;;0.10;0.10;;;32.50;1.00;;;;;;4938385;29;20044;-74
2022/08/12 08:58:20;;;;;;;0.30;0.20;;;33.00;1.00;;;;;;4940118;29;20074;-75
2022/08/12 09:00:49;;;;;;;2.28;0.20;;;33.10;1.00;;;;;;4939233;29;20056;-75
2022/08/12 09:03:15;;;;;;;0.13;0.13;;;32.50;1.00;;;;;;4941529;29;20043;-74
2022/08/12 09:05:41;;;;;;;0.60;0.40;;;32.40;1.00;;;;;;4942569;29;20463;-75
2022/08/12 09:08:06;;;;;;;0.10;0.10;;;32.30;1.00;;;;;;4940527;29;20188;-75
2022/08/12 09:10:32;;;;;;;0.08;0.08;;;32.60;1.00;;;;;;4941657;29;20043;-75
2022/08/12 09:15:43;;;;;;;;;;;32.70;1.00;;;;;;4949064;28;20521;-75
2022/08/12 09:18:10;;;;;;;0.10;0.10;;;33.30;1.00;;;;;;4959111;28;19922;-75
2022/08/12 09:20:38;;;;;;;0.57;0.32;;;33.20;1.00;;;;;;4959084;28;20107;-75
2022/08/12 09:23:07;;;;;;;1.35;0.55;;;33.30;1.00;;;;;;4961931;28;20065;-75
2022/08/12 09:25:34;;;;;;;1.10;0.38;;;32.90;1.00;;;;;;4965070;28;20047;-75
2022/08/12 09:28:01;;;;;;;0.00;0.00;;;32.40;1.00;;;;;;4964284;28;20059;-75
2022/08/12 09:30:27;;;;;;;0.22;0.15;;;32.20;1.00;;;;;;4967174;28;20043;-75
2022/08/12 09:32:53;;;;;;;0.65;0.30;;;32.00;1.00;;;;;;4966016;28;20192;-75
2022/08/12 09:35:22;;;;;;;0.20;0.20;;;32.10;1.00;;;;;;4962231;28;20039;-75
2022/08/12 09:37:52;;;;;;;2.17;0.75;;;32.60;1.00;;;;;;4955174;28;20043;-75
2022/08/12 09:40:19;;;;;;;0.17;0.13;;;32.80;1.00;;;;;;4958654;28;20043;-75
2022/08/12 09:45:32;;;;;;;3.65;0.88;;;32.50;1.00;;;;;;4954262;28;20044;-75
2022/08/12 09:48:03;;;;;;;1.77;0.57;;;32.20;1.00;;;;;;4945867;29;20048;-75
2022/08/12 09:50:30;;;;;;;0.22;0.22;;;32.00;1.00;;;;;;4943947;29;20450;-75
2022/08/12 09:53:09;;;;;;;0.32;0.30;;;31.60;1.00;;;;;;4947760;29;20501;-75
2022/08/12 09:55:36;;;;;;;1.30;0.77;;;31.30;1.00;;;;;;4951794;29;20119;-74
2022/08/12 09:58:03;;;;;;;0.30;0.25;;;31.30;1.00;;;;;;4954571;28;20040;-75
2022/08/12 10:00:28;;;;;;;0.32;0.30;;;31.00;1.00;;;;;;4955845;28;20046;-75
2022/08/12 10:02:59;;;;;;;0.47;0.38;;;31.20;1.00;;;;;;4945631;29;20047;-75
2022/08/12 10:05:25;;;;;;;7.13;1.17;;;30.90;1.00;;;;;;4949017;29;20066;-75
2022/08/12 10:07:50;;;;;;;0.40;0.40;;;31.00;1.00;;;;;;4951164;29;20048;-75
2022/08/12 10:10:16;;;;;;;0.10;0.00;;;31.20;1.00;;;;;;4947419;29;20051;-75
2022/08/12 10:15:28;;;;;;;1.45;0.47;;;31.60;1.00;;;;;;4941946;29;20055;-77
2022/08/12 10:17:54;;;;;;;0.13;0.13;;;31.90;1.00;;;;;;4945569;29;20063;-78
2022/08/12 10:20:19;;;;;;;0.38;0.30;;;31.90;1.00;;;;;;4945018;29;20048;-77
2022/08/12 10:23:00;;;;;;;0.82;0.63;;;31.80;1.00;;;;;;4949675;29;20095;-78
2022/08/12 10:30:56;;;;;;;0.70;0.38;;;31.70;1.00;;;;;;4940332;29;20197;-78
2022/08/12 10:33:23;;;;;;;0.47;0.40;;;31.50;1.00;;;;;;4943802;29;20064;-78
2022/08/12 10:35:48;;;;;;;1.45;0.73;;;31.50;1.00;;;;;;4946712;29;20055;-79
2022/08/12 10:38:16;;;;;;;0.75;0.35;;;31.70;1.00;;;;;;4943573;29;20052;-78
2022/08/12 10:43:42;;;;;;;0.20;0.15;;;32.50;1.00;;;;;;4948592;29;20123;-78
2022/08/12 10:46:17;;;;;;;4.13;0.55;;;32.70;1.00;;;;;;4941622;29;20065;-76
2022/08/12 10:48:47;;;;;;;;;;;32.80;1.00;;;;;;4958114;29;20043;-76
2022/08/12 10:51:14;;;;;;;0.13;0.08;;;32.70;1.00;;;;;;4957353;29;19922;-75
2022/08/12 10:53:42;;;;;;;0.13;0.10;;;32.60;1.00;;;;;;4958145;29;20075;-76
2022/08/12 10:56:10;;;;;;;0.00;0.00;;;32.80;1.00;;;;;;4956184;29;20040;-75
2022/08/12 10:58:39;;;;;;;10.50;0.47;;;32.40;1.00;;;;;;4955530;29;20052;-75
2022/08/12 11:01:06;;;;;;;0.55;0.20;;;32.70;1.00;;;;;;4954120;29;20071;-75
2022/08/12 11:03:36;;;;;;;6.30;1.33;;;33.00;1.00;;;;;;4955522;29;20052;-76
2022/08/12 11:06:07;;;;;;;3.83;0.45;;;33.40;1.00;;;;;;4957146;29;20059;-78
2022/08/12 11:08:36;;;;;;;0.35;0.35;;;33.70;1.00;;;;;;4953359;29;20074;-75
2022/08/12 11:11:08;;;;;;;0.25;0.17;;;33.40;1.00;;;;;;4956203;29;20047;-76
2022/08/12 11:13:35;;;;;;;0.20;0.20;;;33.40;1.00;;;;;;4956459;29;20052;-76
2022/08/12 11:16:07;;;;;;;0.10;0.10;;;33.40;1.00;;;;;;4955746;29;20527;-76
2022/08/12 11:18:32;;;;;;;0.25;0.15;;;33.40;1.00;;;;;;4955760;29;20400;-76
2022/08/12 11:20:59;;;;;;;0.25;0.22;;;33.60;1.00;;;;;;4953545;29;20050;-76
2022/08/12 11:23:25;;;;;;;0.47;0.28;;;33.70;1.00;;;;;;4954454;29;20514;-75
2022/08/12 11:25:51;;;;;;;0.20;0.15;;;33.40;1.00;;;;;;4954338;29;20098;-76
2022/08/12 11:28:17;;;;;;;0.17;0.17;;;33.10;1.00;;;;;;4955390;29;20120;-75
2022/08/12 11:30:44;;;;;;;0.00;0.00;;;33.40;1.00;;;;;;4954973;29;20099;-77
2022/08/12 11:33:10;;;;;;;0.80;0.50;;;33.90;1.00;;;;;;4951498;29;20044;-76
2022/08/12 11:35:37;;;;;;;1.85;0.55;;;34.10;1.00;;;;;;4953457;29;20578;-76
2022/08/12 11:38:03;;;;;;;0.10;0.10;;;34.50;1.00;;;;;;4954791;29;20051;-76
2022/08/12 11:40:29;;;;;;;0.20;0.15;;;35.20;1.00;;;;;;4953818;29;20055;-76
2022/08/12 11:42:56;;;;;;;0.20;0.20;;;34.90;1.00;;;;;;4952405;29;20487;-76
2022/08/12 11:45:21;;;;;;;0.10;0.10;;;35.00;1.00;;;;;;4952457;29;20079;-76
2022/08/12 11:47:47;;;;;;;0.30;0.25;;;35.30;1.00;;;;;;4954395;29;20043;-76
2022/08/12 11:50:12;;;;;;;2.78;0.38;;;35.30;1.00;;;;;;4954237;29;20095;-76
2022/08/12 11:52:38;;;;;;;0.57;0.40;;;35.50;1.00;;;;;;4953422;29;20048;-76
2022/08/12 11:55:04;;;;;;;1.08;0.68;;;34.40;1.00;;;;;;4955401;29;20091;-76
2022/08/12 11:57:30;;;;;;;3.05;0.77;;;35.00;1.00;;;;;;4953638;29;20153;-76
2022/08/12 11:59:56;;;;;;;0.20;0.20;;;36.00;1.00;;;;;;4956214;29;20019;-76
2022/08/12 12:02:22;;;;;;;0.00;0.00;;;35.60;1.00;;;;;;4954530;29;20036;-76
2022/08/12 12:04:49;;;;;;;0.45;0.28;;;35.30;1.00;;;;;;4954134;29;20047;-77
2022/08/12 12:07:15;;;;;;;0.50;0.50;;;35.20;1.00;;;;;;4953511;29;20031;-76
2022/08/12 12:09:41;;;;;;;0.00;0.00;;;35.80;1.00;;;;;;4953968;29;20047;-76
2022/08/12 12:12:06;;;;;;;2.08;0.30;;;36.00;1.00;;;;;;4953837;29;20031;-75
2022/08/12 12:14:32;;;;;;;0.00;0.00;;;35.00;1.00;;;;;;4954877;29;20075;-76
2022/08/12 12:16:58;;;;;;;0.75;0.17;;;35.00;1.00;;;;;;4951829;29;20063;-76
2022/08/12 12:19:23;;;;;;;2.15;0.38;;;35.60;1.00;;;;;;4955807;29;20039;-76
2022/08/12 12:21:49;;;;;;;0.13;0.13;;;36.70;1.00;;;;;;4954460;29;20062;-76
2022/08/12 12:24:16;;;;;;;11.70;0.32;;;37.40;1.00;;;;;;4954809;29;20106;-75
2022/08/12 12:26:41;;;;;;;0.32;0.32;;;36.90;1.00;;;;;;4952160;29;20127;-76
2022/08/12 12:29:07;;;;;;;0.10;0.10;;;36.90;1.00;;;;;;4955278;29;20044;-76
2022/08/12 12:31:32;;;;;;;0.08;0.08;;;36.80;1.00;;;;;;4955599;29;20083;-76
2022/08/12 12:33:58;;;;;;;0.13;0.13;;;37.40;1.00;;;;;;4955054;29;20036;-76
2022/08/12 12:36:24;;;;;;;0.10;0.10;;;38.30;1.00;;;;;;4953628;29;20067;-76
2022/08/12 12:38:49;;;;;;;0.13;0.10;;;38.30;1.00;;;;;;4954192;29;20044;-76
2022/08/12 12:41:15;;;;;;;1.40;0.30;;;37.90;1.00;;;;;;4952566;29;20036;-75
2022/08/12 12:43:41;;;;;;;1.08;0.40;;;38.10;1.00;;;;;;4952394;29;20044;-73
2022/08/12 12:46:06;;;;;;;2.78;0.75;;;37.70;1.00;;;;;;4952745;29;20072;-73
2022/08/12 12:48:32;;;;;;;0.00;0.00;;;37.00;1.00;;;;;;4952542;29;20055;-74
2022/08/12 12:51:16;;;;;;;0.17;0.17;;;37.00;1.00;;;;;;4952623;29;20059;-73
2022/08/12 12:53:46;;;;;;;0.00;0.00;;;37.60;1.00;;;;;;4954358;29;20048;-73
2022/08/12 12:56:19;;;;;;;0.10;0.10;;;36.80;1.00;;;;;;4951653;29;20064;-73
2022/08/12 12:58:48;;;;;;;0.10;0.10;;;37.20;1.00;;;;;;4957030;29;20051;-73
2022/08/12 13:01:20;;;;;;;0.80;0.32;;;38.00;1.00;;;;;;4955956;29;20043;-73
2022/08/12 13:03:47;;;;;;;0.00;0.00;;;38.60;1.00;;;;;;4956208;29;20063;-73
2022/08/12 13:06:13;;;;;;;0.10;0.10;;;38.90;1.00;;;;;;4955446;29;20043;-73
2022/08/12 13:08:38;;;;;;;2.80;0.40;;;38.90;1.00;;;;;;4959734;29;20031;-74
2022/08/12 13:11:06;;;;;;;0.20;0.10;;;38.50;1.00;;;;;;4957367;29;20099;-73
2022/08/12 13:13:35;;;;;;;0.20;0.17;;;38.80;1.00;;;;;;4958071;29;20047;-73
2022/08/12 13:16:01;;;;;;;0.00;0.00;;;39.30;1.00;;;;;;4957398;29;20047;-73
2022/08/12 13:18:35;;;;;;;2.53;0.52;;;39.00;1.00;;;;;;4957716;29;20043;-74
2022/08/12 13:21:08;;;;;;;0.10;0.10;;;38.90;1.00;;;;;;4957948;29;20098;-73
2022/08/12 13:23:34;;;;;;;0.57;0.20;;;38.40;1.00;;;;;;4956957;29;20060;-73
2022/08/12 13:26:00;;;;;;;0.45;0.45;;;38.60;1.00;;;;;;4958345;29;20060;-73
2022/08/12 13:28:29;;;;;;;0.45;0.32;;;38.20;1.00;;;;;;4958530;29;20086;-73
2022/08/12 13:30:58;;;;;;;0.00;0.00;;;38.20;1.00;;;;;;4954848;29;20427;-74
2022/08/12 13:33:28;;;;;;;1.27;0.55;;;38.30;1.00;;;;;;4949950;29;20043;-74
2022/08/12 13:35:59;;;;;;;0.10;0.10;;;38.70;1.00;;;;;;4951656;29;20050;-74
2022/08/12 13:38:38;;;;;;;0.93;0.32;;;38.80;1.00;;;;;;4951296;29;20048;-74
2022/08/12 13:41:08;;;;;;;0.10;0.10;;;39.70;1.00;;;;;;4951650;29;20054;-74
2022/08/12 13:43:33;;;;;;;0.98;0.38;;;40.00;1.00;;;;;;4948343;29;20518;-75
2022/08/12 13:46:00;;;;;;;1.67;0.73;;;37.30;1.00;;;;;;4949268;29;20036;-74
2022/08/12 13:48:26;;;;;;;0.22;0.10;;;36.90;1.00;;;;;;4954890;29;20044;-75
2022/08/12 13:50:52;;;;;;;0.22;0.20;;;37.00;1.00;;;;;;4944190;29;20123;-74
2022/08/12 13:53:18;;;;;;;12.10;1.55;;;37.00;1.00;;;;;;4943630;29;20044;-75
2022/08/12 13:55:48;;;;;;;0.15;0.15;;;37.30;1.00;;;;;;4941823;29;20079;-74
2022/08/12 13:58:16;;;;;;;0.40;0.28;;;37.10;1.00;;;;;;4942830;29;20447;-75
2022/08/12 14:00:48;;;;;;;0.00;0.00;;;37.30;1.00;;;;;;4945625;29;20040;-75
2022/08/12 14:03:15;;;;;;;2.60;0.73;;;37.50;1.00;;;;;;4947576;29;20099;-74
2022/08/12 14:05:41;;;;;;;0.13;0.10;;;38.30;1.00;;;;;;4950329;28;20078;-77
2022/08/12 14:08:09;;;;;;;0.30;0.20;;;38.60;1.00;;;;;;4951631;28;20188;-74
2022/08/12 14:10:42;;;;;;;0.45;0.30;;;38.80;1.00;;;;;;4953143;28;20071;-75
2022/08/12 14:13:16;;;;;;;1.45;1.02;;;39.40;1.00;;;;;;4948466;28;20067;-75
2022/08/12 14:15:49;;;;;;;0.32;0.30;;;38.40;1.00;;;;;;4943952;29;20047;-75
2022/08/12 14:18:28;;;;;;;0.00;0.00;;;38.90;1.00;;;;;;4940084;29;20213;-75
2022/08/12 14:21:02;;;;;;;6.50;0.80;;;38.80;1.00;;;;;;4943659;29;20043;-74
2022/08/12 14:23:33;;;;;;;0.30;0.22;;;38.70;1.00;;;;;;4945387;28;20063;-75
2022/08/12 14:26:00;;;;;;;0.35;0.28;;;38.70;1.00;;;;;;4949752;29;20068;-74
2022/08/12 14:28:30;;;;;;;0.57;0.35;;;39.00;1.00;;;;;;4949647;28;20040;-74
2022/08/12 14:31:01;;;;;;;0.38;0.10;;;39.20;1.00;;;;;;4957270;28;20055;-75
2022/08/12 14:33:39;;;;;;;0.10;0.10;;;38.80;1.00;;;;;;4963563;28;20421;-75
2022/08/12 14:36:08;;;;;;;0.28;0.22;;;39.20;1.00;;;;;;4960317;28;20407;-75
2022/08/12 14:38:39;;;;;;;0.57;0.32;;;38.80;1.00;;;;;;4958986;28;20131;-75
2022/08/12 14:41:10;;;;;;;0.30;0.22;;;37.70;1.00;;;;;;4958373;28;20053;-74
2022/08/12 14:43:37;;;;;;;0.32;0.20;;;37.40;1.00;;;;;;4960188;28;20091;-75
2022/08/12 14:46:11;;;;;;;1.08;0.75;;;37.10;1.00;;;;;;4960180;28;20135;-74
2022/08/12 14:48:38;;;;;;;0.00;0.00;;;37.50;1.00;;;;;;4963959;28;20050;-74